Terminal Aerodrome Forecast
Issued by NWS

Home | Current Version | Previous Version | Text Only | Print | Product List | Glossary On
Versions: 1 2 3 4 5 6 7 8 9 10 11 12 13 14 15 16 17 18 19 20 21 22
000
FTUS45 KTFX 282300
TAFHVR
TAF
KHVR 282320Z 2900/2924 31012G20KT P6SM VCSH SCT008 BKN016
     FM290200 35015KT 5SM -SHSN BR BKN015
      TEMPO 2904/2908 2SM -SN BR BKN008
     FM291000 35008KT P6SM VCSH BKN015
     FM291800 32006KT P6SM SCT015 SCT050=

USA.gov is the U.S. government's official web portal to all federal, state and local government web resources and services.